sensor_id;sensor_type;location;lat;lon;timestamp;pressure;altitude;pressure_sealevel;temperature;humidity
64340;BME280;63709;53.258;-8.814;2023-02-18T00:00:59;101784.53;;;14.92;100.00
64340;BME280;63709;53.258;-8.814;2023-02-18T00:03:28;101789.91;;;14.92;100.00
64340;BME280;63709;53.258;-8.814;2023-02-18T00:06:08;101794.69;;;15.00;100.00
64340;BME280;63709;53.258;-8.814;2023-02-18T00:08:35;101785.03;;;14.97;100.00
64340;BME280;63709;53.258;-8.814;2023-02-18T00:13:40;101793.94;;;14.98;100.00
64340;BME280;63709;53.258;-8.814;2023-02-18T00:16:08;101795.69;;;14.99;100.00
64340;BME280;63709;53.258;-8.814;2023-02-18T00:18:37;101779.00;;;14.83;100.00
64340;BME280;63709;53.258;-8.814;2023-02-18T00:21:04;101787.63;;;14.99;100.00
64340;BME280;63709;53.258;-8.814;2023-02-18T00:23:30;101789.31;;;14.89;100.00
64340;BME280;63709;53.258;-8.814;2023-02-18T00:26:01;101787.84;;;14.96;100.00
64340;BME280;63709;53.258;-8.814;2023-02-18T00:28:30;101795.66;;;14.88;100.00
64340;BME280;63709;53.258;-8.814;2023-02-18T00:30:57;101794.81;;;14.87;100.00
64340;BME280;63709;53.258;-8.814;2023-02-18T00:33:22;101793.38;;;14.94;100.00
64340;BME280;63709;53.258;-8.814;2023-02-18T00:35:49;101798.75;;;14.94;100.00
64340;BME280;63709;53.258;-8.814;2023-02-18T00:38:16;101786.97;;;14.84;100.00
64340;BME280;63709;53.258;-8.814;2023-02-18T00:40:41;101800.69;;;14.92;100.00
64340;BME280;63709;53.258;-8.814;2023-02-18T00:43:09;101792.63;;;14.92;100.00
64340;BME280;63709;53.258;-8.814;2023-02-18T00:45:34;101810.69;;;14.90;100.00
64340;BME280;63709;53.258;-8.814;2023-02-18T00:48:01;101820.25;;;14.94;100.00
64340;BME280;63709;53.258;-8.814;2023-02-18T00:50:27;101817.91;;;15.01;100.00
64340;BME280;63709;53.258;-8.814;2023-02-18T00:52:53;101824.03;;;14.92;100.00
64340;BME280;63709;53.258;-8.814;2023-02-18T00:55:26;101817.91;;;15.01;100.00
64340;BME280;63709;53.258;-8.814;2023-02-18T00:57:51;101823.03;;;14.93;100.00
64340;BME280;63709;53.258;-8.814;2023-02-18T01:00:23;101828.38;;;14.82;100.00
64340;BME280;63709;53.258;-8.814;2023-02-18T01:02:53;101834.16;;;14.88;100.00
64340;BME280;63709;53.258;-8.814;2023-02-18T01:05:20;101843.81;;;14.91;100.00
64340;BME280;63709;53.258;-8.814;2023-02-18T01:07:45;101849.31;;;15.00;100.00
64340;BME280;63709;53.258;-8.814;2023-02-18T01:10:18;101856.31;;;15.03;100.00
64340;BME280;63709;53.258;-8.814;2023-02-18T01:12:44;101849.69;;;14.96;100.00
64340;BME280;63709;53.258;-8.814;2023-02-18T01:15:17;101848.44;;;14.89;100.00
64340;BME280;63709;53.258;-8.814;2023-02-18T01:17:43;101856.50;;;14.89;100.00
64340;BME280;63709;53.258;-8.814;2023-02-18T01:20:11;101853.69;;;14.90;100.00
64340;BME280;63709;53.258;-8.814;2023-02-18T01:22:41;101860.06;;;14.89;100.00
64340;BME280;63709;53.258;-8.814;2023-02-18T01:25:08;101861.41;;;14.84;100.00
64340;BME280;63709;53.258;-8.814;2023-02-18T01:27:33;101851.94;;;14.78;100.00
64340;BME280;63709;53.258;-8.814;2023-02-18T01:30:07;101873.09;;;14.83;100.00
64340;BME280;63709;53.258;-8.814;2023-02-18T01:32:33;101878.47;;;14.83;100.00
64340;BME280;63709;53.258;-8.814;2023-02-18T01:35:02;101873.44;;;14.78;100.00
64340;BME280;63709;53.258;-8.814;2023-02-18T01:37:28;101874.22;;;14.80;100.00
64340;BME280;63709;53.258;-8.814;2023-02-18T01:42:26;101865.91;;;14.83;100.00
64340;BME280;63709;53.258;-8.814;2023-02-18T01:47:20;101863.69;;;14.77;100.00
64340;BME280;63709;53.258;-8.814;2023-02-18T01:49:46;101868.88;;;14.67;100.00
64340;BME280;63709;53.258;-8.814;2023-02-18T01:52:15;101860.59;;;14.70;100.00
64340;BME280;63709;53.258;-8.814;2023-02-18T01:54:45;101852.53;;;14.70;100.00
64340;BME280;63709;53.258;-8.814;2023-02-18T01:57:19;101857.66;;;14.62;100.00
64340;BME280;63709;53.258;-8.814;2023-02-18T01:59:48;101857.88;;;14.59;100.00
64340;BME280;63709;53.258;-8.814;2023-02-18T02:02:16;101853.38;;;14.71;100.00
64340;BME280;63709;53.258;-8.814;2023-02-18T02:04:42;101852.03;;;14.65;100.00
64340;BME280;63709;53.258;-8.814;2023-02-18T02:07:08;101865.94;;;14.59;100.00
64340;BME280;63709;53.258;-8.814;2023-02-18T02:17:33;101874.47;;;14.40;100.00
64340;BME280;63709;53.258;-8.814;2023-02-18T02:20:25;101867.69;;;14.47;100.00
64340;BME280;63709;53.258;-8.814;2023-02-18T02:33:18;101864.59;;;14.41;100.00
64340;BME280;63709;53.258;-8.814;2023-02-18T02:35:52;101858.47;;;14.39;100.00
64340;BME280;63709;53.258;-8.814;2023-02-18T02:38:39;101860.41;;;14.37;100.00
64340;BME280;63709;53.258;-8.814;2023-02-18T02:46:35;101859.63;;;14.47;100.00
64340;BME280;63709;53.258;-8.814;2023-02-18T02:56:37;101852.63;;;14.45;100.00
64340;BME280;63709;53.258;-8.814;2023-02-18T02:59:03;101830.50;;;14.54;100.00
64340;BME280;63709;53.258;-8.814;2023-02-18T03:01:48;101843.94;;;14.41;100.00
64340;BME280;63709;53.258;-8.814;2023-02-18T03:12:12;101842.13;;;14.42;100.00
64340;BME280;63709;53.258;-8.814;2023-02-18T03:14:53;101846.41;;;14.44;100.00
64340;BME280;63709;53.258;-8.814;2023-02-18T03:17:22;101844.31;;;14.37;100.00
64340;BME280;63709;53.258;-8.814;2023-02-18T03:22:24;101828.69;;;14.42;100.00
64340;BME280;63709;53.258;-8.814;2023-02-18T03:24:52;101836.53;;;14.45;100.00
64340;BME280;63709;53.258;-8.814;2023-02-18T03:27:29;101829.44;;;14.44;100.00
64340;BME280;63709;53.258;-8.814;2023-02-18T03:32:46;101817.91;;;14.55;100.00
64340;BME280;63709;53.258;-8.814;2023-02-18T03:35:15;101804.41;;;14.43;100.00
64340;BME280;63709;53.258;-8.814;2023-02-18T03:40:48;101813.91;;;14.36;100.00
64340;BME280;63709;53.258;-8.814;2023-02-18T03:43:17;101808.31;;;14.39;100.00
64340;BME280;63709;53.258;-8.814;2023-02-18T03:45:44;101816.94;;;14.32;100.00
64340;BME280;63709;53.258;-8.814;2023-02-18T03:50:41;101821.69;;;14.28;100.00
64340;BME280;63709;53.258;-8.814;2023-02-18T03:53:07;101828.84;;;14.27;100.00
64340;BME280;63709;53.258;-8.814;2023-02-18T03:55:40;101816.47;;;14.38;100.00
64340;BME280;63709;53.258;-8.814;2023-02-18T03:58:08;101818.28;;;14.37;100.00
64340;BME280;63709;53.258;-8.814;2023-02-18T04:00:34;101814.75;;;14.37;100.00
64340;BME280;63709;53.258;-8.814;2023-02-18T04:03:02;101815.19;;;14.31;100.00
64340;BME280;63709;53.258;-8.814;2023-02-18T04:05:36;101813.28;;;14.33;100.00
64340;BME280;63709;53.258;-8.814;2023-02-18T04:08:01;101814.97;;;14.34;100.00
64340;BME280;63709;53.258;-8.814;2023-02-18T04:10:28;101812.66;;;14.29;100.00
64340;BME280;63709;53.258;-8.814;2023-02-18T04:12:53;101802.81;;;14.41;100.00
64340;BME280;63709;53.258;-8.814;2023-02-18T04:15:21;101799.03;;;14.43;100.00
64340;BME280;63709;53.258;-8.814;2023-02-18T04:17:52;101804.41;;;14.43;100.00
64340;BME280;63709;53.258;-8.814;2023-02-18T04:20:24;101802.81;;;14.41;100.00
64340;BME280;63709;53.258;-8.814;2023-02-18T04:22:49;101798.63;;;14.37;100.00
64340;BME280;63709;53.258;-8.814;2023-02-18T04:25:14;101797.78;;;14.36;100.00
64340;BME280;63709;53.258;-8.814;2023-02-18T04:30:12;101794.75;;;14.41;100.00
64340;BME280;63709;53.258;-8.814;2023-02-18T04:32:38;101793.66;;;14.43;100.00
64340;BME280;63709;53.258;-8.814;2023-02-18T04:38:08;101796.94;;;14.36;100.00
64340;BME280;63709;53.258;-8.814;2023-02-18T04:40:39;101792.69;;;14.44;100.00
64340;BME280;63709;53.258;-8.814;2023-02-18T04:43:07;101792.47;;;14.47;100.00
64340;BME280;63709;53.258;-8.814;2023-02-18T04:45:37;101794.88;;;14.39;100.00
64340;BME280;63709;53.258;-8.814;2023-02-18T04:48:03;101789.19;;;14.31;100.00
64340;BME280;63709;53.258;-8.814;2023-02-18T04:50:29;101803.50;;;14.32;100.00
64340;BME280;63709;53.258;-8.814;2023-02-18T04:52:55;101802.31;;;14.36;100.00
64340;BME280;63709;53.258;-8.814;2023-02-18T04:55:30;101814.41;;;14.17;100.00
64340;BME280;63709;53.258;-8.814;2023-02-18T04:57:56;101822.19;;;14.33;100.00
64340;BME280;63709;53.258;-8.814;2023-02-18T05:00:28;101828.31;;;14.35;100.00
64340;BME280;63709;53.258;-8.814;2023-02-18T05:02:53;101826.16;;;14.27;100.00
64340;BME280;63709;53.258;-8.814;2023-02-18T05:05:20;101834.41;;;14.37;100.00
64340;BME280;63709;53.258;-8.814;2023-02-18T05:07:54;101832.00;;;14.21;100.00
64340;BME280;63709;53.258;-8.814;2023-02-18T05:10:20;101831.66;;;14.26;100.00
64340;BME280;63709;53.258;-8.814;2023-02-18T05:12:55;101827.28;;;14.25;100.00
64340;BME280;63709;53.258;-8.814;2023-02-18T05:15:33;101822.84;;;14.00;100.00
64340;BME280;63709;53.258;-8.814;2023-02-18T05:17:58;101825.66;;;14.22;100.00
64340;BME280;63709;53.258;-8.814;2023-02-18T05:20:28;101827.72;;;14.19;100.00
64340;BME280;63709;53.258;-8.814;2023-02-18T05:22:54;101830.69;;;14.03;100.00
64340;BME280;63709;53.258;-8.814;2023-02-18T05:25:21;101835.03;;;14.17;100.00
64340;BME280;63709;53.258;-8.814;2023-02-18T05:27:59;101827.88;;;14.04;100.00
64340;BME280;63709;53.258;-8.814;2023-02-18T05:30:26;101834.41;;;14.13;100.00
64340;BME280;63709;53.258;-8.814;2023-02-18T05:32:53;101836.97;;;14.15;100.00
64340;BME280;63709;53.258;-8.814;2023-02-18T05:35:19;101825.97;;;13.94;100.00
64340;BME280;63709;53.258;-8.814;2023-02-18T05:37:45;101831.72;;;14.13;100.00
64340;BME280;63709;53.258;-8.814;2023-02-18T05:42:42;101828.63;;;14.07;100.00
64340;BME280;63709;53.258;-8.814;2023-02-18T05:45:09;101826.81;;;14.07;100.00
64340;BME280;63709;53.258;-8.814;2023-02-18T05:50:04;101833.38;;;14.03;100.00
64340;BME280;63709;53.258;-8.814;2023-02-18T05:52:32;101842.78;;;14.09;100.00
64340;BME280;63709;53.258;-8.814;2023-02-18T05:54:58;101846.56;;;14.06;100.00
64340;BME280;63709;53.258;-8.814;2023-02-18T05:57:29;101845.25;;;14.12;100.00
64340;BME280;63709;53.258;-8.814;2023-02-18T05:59:54;101843.13;;;14.04;100.00
64340;BME280;63709;53.258;-8.814;2023-02-18T06:02:21;101845.81;;;14.04;100.00
64340;BME280;63709;53.258;-8.814;2023-02-18T06:07:14;101837.75;;;14.04;100.00
64340;BME280;63709;53.258;-8.814;2023-02-18T06:09:41;101836.78;;;14.05;100.00
64340;BME280;63709;53.258;-8.814;2023-02-18T06:12:06;101840.44;;;14.04;100.00
64340;BME280;63709;53.258;-8.814;2023-02-18T06:14:34;101846.16;;;13.99;100.00
64340;BME280;63709;53.258;-8.814;2023-02-18T06:19:30;101849.84;;;14.22;100.00
64340;BME280;63709;53.258;-8.814;2023-02-18T06:24:29;101847.00;;;14.13;100.00
64340;BME280;63709;53.258;-8.814;2023-02-18T06:26:55;101846.50;;;14.19;100.00
64340;BME280;63709;53.258;-8.814;2023-02-18T06:29:22;101847.00;;;14.13;100.00
64340;BME280;63709;53.258;-8.814;2023-02-18T06:31:50;101846.22;;;14.11;100.00
64340;BME280;63709;53.258;-8.814;2023-02-18T06:34:21;101838.19;;;14.11;100.00
64340;BME280;63709;53.258;-8.814;2023-02-18T06:36:54;101842.06;;;14.07;100.00
64340;BME280;63709;53.258;-8.814;2023-02-18T06:39:21;101844.31;;;14.00;100.00
64340;BME280;63709;53.258;-8.814;2023-02-18T06:41:50;101845.31;;;13.99;100.00
64340;BME280;63709;53.258;-8.814;2023-02-18T06:44:22;101856.13;;;13.97;100.00
64340;BME280;63709;53.258;-8.814;2023-02-18T06:46:47;101863.03;;;13.89;100.00
64340;BME280;63709;53.258;-8.814;2023-02-18T06:49:12;101853.06;;;13.91;100.00
64340;BME280;63709;53.258;-8.814;2023-02-18T06:51:39;101854.78;;;13.92;100.00
64340;BME280;63709;53.258;-8.814;2023-02-18T06:54:04;101851.31;;;13.90;100.00
64340;BME280;63709;53.258;-8.814;2023-02-18T06:56:30;101851.78;;;13.84;100.00
64340;BME280;63709;53.258;-8.814;2023-02-18T06:59:04;101848.34;;;13.82;100.00
64340;BME280;63709;53.258;-8.814;2023-02-18T07:01:38;101852.44;;;13.87;100.00
64340;BME280;63709;53.258;-8.814;2023-02-18T07:04:05;101855.97;;;13.88;100.00
64340;BME280;63709;53.258;-8.814;2023-02-18T07:06:32;101856.19;;;13.85;100.00
64340;BME280;63709;53.258;-8.814;2023-02-18T07:08:57;101847.50;;;13.81;100.00
64340;BME280;63709;53.258;-8.814;2023-02-18T07:11:23;101850.13;;;13.94;100.00
64340;BME280;63709;53.258;-8.814;2023-02-18T07:14:00;101852.25;;;14.01;100.00
64340;BME280;63709;53.258;-8.814;2023-02-18T07:16:26;101863.13;;;14.00;100.00
64340;BME280;63709;53.258;-8.814;2023-02-18T07:18:52;101856.78;;;14.01;100.00
64340;BME280;63709;53.258;-8.814;2023-02-18T07:21:19;101866.69;;;13.88;100.00
64340;BME280;63709;53.258;-8.814;2023-02-18T07:23:51;101862.13;;;14.01;100.00
64340;BME280;63709;53.258;-8.814;2023-02-18T07:26:16;101865.59;;;14.03;100.00
64340;BME280;63709;53.258;-8.814;2023-02-18T07:28:43;101864.94;;;13.99;100.00
64340;BME280;63709;53.258;-8.814;2023-02-18T07:31:08;101878.16;;;13.90;100.00
64340;BME280;63709;53.258;-8.814;2023-02-18T07:33:33;101874.84;;;13.86;100.00
64340;BME280;63709;53.258;-8.814;2023-02-18T07:36:00;101866.69;;;13.88;100.00
64340;BME280;63709;53.258;-8.814;2023-02-18T07:38:31;101859.16;;;14.06;100.00
64340;BME280;63709;53.258;-8.814;2023-02-18T07:40:59;101869.88;;;14.06;100.00
64340;BME280;63709;53.258;-8.814;2023-02-18T07:43:25;101868.78;;;14.08;100.00
64340;BME280;63709;53.258;-8.814;2023-02-18T07:45:52;101870.09;;;14.02;100.00
64340;BME280;63709;53.258;-8.814;2023-02-18T07:53:16;101883.19;;;14.07;100.00
64340;BME280;63709;53.258;-8.814;2023-02-18T07:58:24;101884.66;;;14.11;100.00
64340;BME280;63709;53.258;-8.814;2023-02-18T08:00:51;101892.06;;;14.20;100.00
64340;BME280;63709;53.258;-8.814;2023-02-18T08:03:19;101898.38;;;14.19;100.00
64340;BME280;63709;53.258;-8.814;2023-02-18T08:05:49;101890.47;;;14.18;100.00
64340;BME280;63709;53.258;-8.814;2023-02-18T08:08:19;101901.94;;;14.20;100.00
64340;BME280;63709;53.258;-8.814;2023-02-18T08:10:46;101893.28;;;14.03;100.00
64340;BME280;63709;53.258;-8.814;2023-02-18T08:13:12;101899.88;;;14.23;100.00
64340;BME280;63709;53.258;-8.814;2023-02-18T08:15:37;101898.81;;;14.26;100.00
64340;BME280;63709;53.258;-8.814;2023-02-18T08:18:03;101892.88;;;14.34;100.00
64340;BME280;63709;53.258;-8.814;2023-02-18T08:20:36;101901.34;;;14.40;100.00
64340;BME280;63709;53.258;-8.814;2023-02-18T08:23:02;101905.56;;;14.32;100.00
64340;BME280;63709;53.258;-8.814;2023-02-18T08:25:28;101900.34;;;14.17;100.00
64340;BME280;63709;53.258;-8.814;2023-02-18T08:33:03;101916.47;;;14.04;100.00
64340;BME280;63709;53.258;-8.814;2023-02-18T08:35:30;101908.44;;;13.92;100.00
64340;BME280;63709;53.258;-8.814;2023-02-18T08:37:55;101911.00;;;13.93;100.00
64340;BME280;63709;53.258;-8.814;2023-02-18T08:40:34;101921.22;;;13.88;100.00
64340;BME280;63709;53.258;-8.814;2023-02-18T08:43:03;101917.25;;;13.94;100.00
64340;BME280;63709;53.258;-8.814;2023-02-18T08:45:32;101931.53;;;13.94;100.00
64340;BME280;63709;53.258;-8.814;2023-02-18T08:47:58;101931.94;;;14.01;100.00
64340;BME280;63709;53.258;-8.814;2023-02-18T08:50:34;101931.31;;;13.85;100.00
64340;BME280;63709;53.258;-8.814;2023-02-18T08:58:08;101931.75;;;13.78;100.00
64340;BME280;63709;53.258;-8.814;2023-02-18T09:03:03;101947.22;;;13.88;100.00
64340;BME280;63709;53.258;-8.814;2023-02-18T09:05:29;101950.22;;;13.70;100.00
64340;BME280;63709;53.258;-8.814;2023-02-18T09:07:58;101953.44;;;13.75;100.00
64340;BME280;63709;53.258;-8.814;2023-02-18T09:10:24;101953.78;;;13.84;100.00
64340;BME280;63709;53.258;-8.814;2023-02-18T09:12:58;101946.75;;;13.94;100.00
64340;BME280;63709;53.258;-8.814;2023-02-18T09:15:23;101948.03;;;14.01;100.00
64340;BME280;63709;53.258;-8.814;2023-02-18T09:20:41;101949.63;;;14.29;100.00
64340;BME280;63709;53.258;-8.814;2023-02-18T09:23:14;101944.03;;;14.32;100.00
64340;BME280;63709;53.258;-8.814;2023-02-18T09:25:41;101950.84;;;14.49;100.00
64340;BME280;63709;53.258;-8.814;2023-02-18T09:28:17;101945.19;;;14.54;100.00
64340;BME280;63709;53.258;-8.814;2023-02-18T09:30:48;101943.44;;;14.52;100.00
64340;BME280;63709;53.258;-8.814;2023-02-18T09:33:14;101934.44;;;14.54;100.00
64340;BME280;63709;53.258;-8.814;2023-02-18T09:35:41;101939.03;;;14.51;100.00
64340;BME280;63709;53.258;-8.814;2023-02-18T09:38:07;101951.19;;;13.95;100.00
64340;BME280;63709;53.258;-8.814;2023-02-18T09:40:35;101947.50;;;14.21;100.00
64340;BME280;63709;53.258;-8.814;2023-02-18T09:43:02;101949.53;;;14.18;100.00
64340;BME280;63709;53.258;-8.814;2023-02-18T09:45:29;101947.22;;;14.37;100.00
64340;BME280;63709;53.258;-8.814;2023-02-18T09:48:00;101950.75;;;14.38;100.00
64340;BME280;63709;53.258;-8.814;2023-02-18T09:50:30;101942.53;;;14.28;100.00
64340;BME280;63709;53.258;-8.814;2023-02-18T09:53:01;101949.28;;;14.34;100.00
64340;BME280;63709;53.258;-8.814;2023-02-18T09:55:30;101947.56;;;14.33;100.00
64340;BME280;63709;53.258;-8.814;2023-02-18T09:57:57;101956.66;;;14.06;100.00
64340;BME280;63709;53.258;-8.814;2023-02-18T10:03:05;101961.25;;;14.04;100.00
64340;BME280;63709;53.258;-8.814;2023-02-18T10:11:03;101968.97;;;14.21;100.00
64340;BME280;63709;53.258;-8.814;2023-02-18T10:13:31;101968.84;;;14.36;100.00
64340;BME280;63709;53.258;-8.814;2023-02-18T10:15:58;101967.31;;;14.44;100.00
64340;BME280;63709;53.258;-8.814;2023-02-18T10:18:27;101974.72;;;14.41;100.00
64340;BME280;63709;53.258;-8.814;2023-02-18T10:21:26;101975.13;;;14.47;100.00
64340;BME280;63709;53.258;-8.814;2023-02-18T10:26:20;101965.78;;;14.53;100.00
64340;BME280;63709;53.258;-8.814;2023-02-18T10:28:47;101969.09;;;14.57;100.00
64340;BME280;63709;53.258;-8.814;2023-02-18T10:31:17;101956.78;;;14.41;100.00
64340;BME280;63709;53.258;-8.814;2023-02-18T10:41:31;101969.97;;;14.57;100.00
64340;BME280;63709;53.258;-8.814;2023-02-18T10:54:08;101964.59;;;14.57;100.00
64340;BME280;63709;53.258;-8.814;2023-02-18T11:02:12;101976.97;;;14.47;100.00
64340;BME280;63709;53.258;-8.814;2023-02-18T11:04:40;101984.06;;;14.48;100.00
64340;BME280;63709;53.258;-8.814;2023-02-18T11:07:18;101969.47;;;14.39;100.00
64340;BME280;63709;53.258;-8.814;2023-02-18T11:09:46;101975.84;;;14.25;100.00
64340;BME280;63709;53.258;-8.814;2023-02-18T11:12:14;101983.91;;;14.25;100.00
64340;BME280;63709;53.258;-8.814;2023-02-18T11:14:46;101986.06;;;14.20;100.00
64340;BME280;63709;53.258;-8.814;2023-02-18T11:17:27;101995.63;;;14.24;100.00
64340;BME280;63709;53.258;-8.814;2023-02-18T11:20:01;102003.66;;;14.24;100.00
64340;BME280;63709;53.258;-8.814;2023-02-18T11:22:30;102008.28;;;14.22;100.00
64340;BME280;63709;53.258;-8.814;2023-02-18T11:25:00;102009.03;;;14.12;100.00
64340;BME280;63709;53.258;-8.814;2023-02-18T11:29:53;102008.81;;;14.15;100.00
64340;BME280;63709;53.258;-8.814;2023-02-18T11:32:20;102017.31;;;14.21;100.00
64340;BME280;63709;53.258;-8.814;2023-02-18T11:34:46;102009.34;;;14.20;100.00
64340;BME280;63709;53.258;-8.814;2023-02-18T11:37:17;102011.38;;;14.16;100.00
64340;BME280;63709;53.258;-8.814;2023-02-18T11:39:45;102018.91;;;14.11;100.00
64340;BME280;63709;53.258;-8.814;2023-02-18T11:44:42;102032.78;;;14.18;100.00
64340;BME280;63709;53.258;-8.814;2023-02-18T11:49:40;102024.72;;;14.05;100.00
64340;BME280;63709;53.258;-8.814;2023-02-18T11:55:13;102021.28;;;14.28;100.00
64340;BME280;63709;53.258;-8.814;2023-02-18T11:57:41;102014.59;;;14.34;100.00
64340;BME280;63709;53.258;-8.814;2023-02-18T12:02:41;102013.78;;;14.21;100.00
64340;BME280;63709;53.258;-8.814;2023-02-18T12:07:54;102014.59;;;14.34;100.00
64340;BME280;63709;53.258;-8.814;2023-02-18T12:10:24;102035.78;;;14.26;100.00
64340;BME280;63709;53.258;-8.814;2023-02-18T12:15:37;102023.00;;;14.29;100.00
64340;BME280;63709;53.258;-8.814;2023-02-18T12:18:31;102032.84;;;14.42;100.00
64340;BME280;63709;53.258;-8.814;2023-02-18T12:39:27;102013.94;;;14.56;100.00
64340;BME280;63709;53.258;-8.814;2023-02-18T12:52:58;102009.75;;;14.52;100.00
64340;BME280;63709;53.258;-8.814;2023-02-18T13:14:32;102021.13;;;14.92;100.00
64340;BME280;63709;53.258;-8.814;2023-02-18T13:17:01;102014.63;;;14.84;100.00
64340;BME280;63709;53.258;-8.814;2023-02-18T13:19:29;102008.59;;;14.80;100.00
64340;BME280;63709;53.258;-8.814;2023-02-18T13:24:39;102016.47;;;14.70;100.00
64340;BME280;63709;53.258;-8.814;2023-02-18T13:30:08;102019.69;;;14.75;100.00
64340;BME280;63709;53.258;-8.814;2023-02-18T13:32:39;102037.97;;;14.70;100.00
64340;BME280;63709;53.258;-8.814;2023-02-18T13:43:15;102030.91;;;14.69;100.00
64340;BME280;63709;53.258;-8.814;2023-02-18T13:51:11;102038.63;;;14.98;100.00
64340;BME280;63709;53.258;-8.814;2023-02-18T13:53:37;102049.31;;;14.87;100.00
64340;BME280;63709;53.258;-8.814;2023-02-18T13:56:04;102067.75;;;14.67;100.00
64340;BME280;63709;53.258;-8.814;2023-02-18T14:01:42;102073.91;;;14.69;100.00
64340;BME280;63709;53.258;-8.814;2023-02-18T14:09:43;102066.66;;;14.83;100.00
64340;BME280;63709;53.258;-8.814;2023-02-18T14:14:41;102081.50;;;14.75;100.00
64340;BME280;63709;53.258;-8.814;2023-02-18T14:19:41;102086.34;;;14.70;100.00
64340;BME280;63709;53.258;-8.814;2023-02-18T14:22:22;102084.00;;;14.53;100.00
64340;BME280;63709;53.258;-8.814;2023-02-18T14:24:53;102097.44;;;14.53;100.00
64340;BME280;63709;53.258;-8.814;2023-02-18T14:27:19;102113.56;;;14.40;100.00
64340;BME280;63709;53.258;-8.814;2023-02-18T14:29:51;102115.59;;;14.37;100.00
64340;BME280;63709;53.258;-8.814;2023-02-18T14:32:24;102102.06;;;14.38;100.00
64340;BME280;63709;53.258;-8.814;2023-02-18T14:40:26;102106.66;;;14.49;100.00
64340;BME280;63709;53.258;-8.814;2023-02-18T14:43:00;102102.94;;;14.51;100.00
64340;BME280;63709;53.258;-8.814;2023-02-18T14:45:39;102116.81;;;14.58;100.00
64340;BME280;63709;53.258;-8.814;2023-02-18T14:51:20;102110.22;;;14.37;100.00
64340;BME280;63709;53.258;-8.814;2023-02-18T14:53:48;102122.25;;;14.44;100.00
64340;BME280;63709;53.258;-8.814;2023-02-18T14:56:15;102121.94;;;14.48;100.00
64340;BME280;63709;53.258;-8.814;2023-02-18T14:58:49;102114.22;;;14.57;100.00
64340;BME280;63709;53.258;-8.814;2023-02-18T15:01:21;102119.91;;;14.52;100.00
64340;BME280;63709;53.258;-8.814;2023-02-18T15:03:50;102116.69;;;14.60;100.00
64340;BME280;63709;53.258;-8.814;2023-02-18T15:09:04;102128.50;;;14.70;100.00
64340;BME280;63709;53.258;-8.814;2023-02-18T15:11:38;102113.91;;;14.61;100.00
64340;BME280;63709;53.258;-8.814;2023-02-18T15:14:09;102119.47;;;14.71;100.00
64340;BME280;63709;53.258;-8.814;2023-02-18T15:16:35;102128.47;;;14.83;100.00
64340;BME280;63709;53.258;-8.814;2023-02-18T15:19:01;102130.31;;;14.82;100.00
64340;BME280;63709;53.258;-8.814;2023-02-18T15:21:28;102134.28;;;14.89;100.00
64340;BME280;63709;53.258;-8.814;2023-02-18T15:24:12;102128.69;;;14.92;100.00
64340;BME280;63709;53.258;-8.814;2023-02-18T15:26:45;102132.34;;;14.79;100.00
64340;BME280;63709;53.258;-8.814;2023-02-18T15:29:24;102131.06;;;14.84;100.00
64340;BME280;63709;53.258;-8.814;2023-02-18T15:31:50;102135.81;;;14.68;100.00
64340;BME280;63709;53.258;-8.814;2023-02-18T15:36:56;102125.81;;;14.70;100.00
64340;BME280;63709;53.258;-8.814;2023-02-18T15:39:23;102136.66;;;14.81;100.00
64340;BME280;63709;53.258;-8.814;2023-02-18T15:41:52;102134.31;;;14.64;100.00
64340;BME280;63709;53.258;-8.814;2023-02-18T15:44:21;102152.66;;;14.44;100.00
64340;BME280;63709;53.258;-8.814;2023-02-18T15:46:47;102147.97;;;14.61;100.00
64340;BME280;63709;53.258;-8.814;2023-02-18T15:49:17;102157.53;;;14.52;100.00
64340;BME280;63709;53.258;-8.814;2023-02-18T15:51:44;102144.88;;;14.54;100.00
64340;BME280;63709;53.258;-8.814;2023-02-18T15:54:13;102153.63;;;14.31;100.00
64340;BME280;63709;53.258;-8.814;2023-02-18T15:56:41;102156.97;;;14.34;100.00
64340;BME280;63709;53.258;-8.814;2023-02-18T15:59:27;102162.00;;;14.26;100.00
64340;BME280;63709;53.258;-8.814;2023-02-18T16:02:36;102159.75;;;14.33;100.00
64340;BME280;63709;53.258;-8.814;2023-02-18T16:04:45;102166.53;;;14.25;100.00
64340;BME280;63709;53.258;-8.814;2023-02-18T16:07:22;102164.72;;;14.39;100.00
64340;BME280;63709;53.258;-8.814;2023-02-18T16:09:48;102170.63;;;14.44;100.00
64340;BME280;63709;53.258;-8.814;2023-02-18T16:12:23;102181.13;;;14.34;100.00
64340;BME280;63709;53.258;-8.814;2023-02-18T16:14:52;102183.28;;;14.42;100.00
64340;BME280;63709;53.258;-8.814;2023-02-18T16:17:28;102178.16;;;14.39;100.00
64340;BME280;63709;53.258;-8.814;2023-02-18T16:19:58;102192.97;;;14.32;100.00
64340;BME280;63709;53.258;-8.814;2023-02-18T16:24:58;102195.88;;;14.28;100.00
64340;BME280;63709;53.258;-8.814;2023-02-18T16:27:27;102209.31;;;14.41;100.00
64340;BME280;63709;53.258;-8.814;2023-02-18T16:29:58;102198.81;;;14.51;100.00
64340;BME280;63709;53.258;-8.814;2023-02-18T16:32:25;102217.31;;;14.56;100.00
64340;BME280;63709;53.258;-8.814;2023-02-18T16:34:50;102228.16;;;14.67;100.00
64340;BME280;63709;53.258;-8.814;2023-02-18T16:37:16;102224.19;;;14.60;100.00
64340;BME280;63709;53.258;-8.814;2023-02-18T16:40:00;102236.00;;;14.57;100.00
64340;BME280;63709;53.258;-8.814;2023-02-18T16:42:25;102237.41;;;14.50;100.00
64340;BME280;63709;53.258;-8.814;2023-02-18T16:44:50;102232.69;;;14.54;100.00
64340;BME280;63709;53.258;-8.814;2023-02-18T16:47:16;102226.28;;;14.42;100.00
64340;BME280;63709;53.258;-8.814;2023-02-18T16:49:46;102243.69;;;14.36;100.00